createdAt,value
2022-11-08T00:02:11.811Z,1.52
2022-11-08T00:04:39.127Z,1.33
2022-11-08T00:07:25.209Z,1.17
2022-11-08T00:10:11.202Z,1.25
2022-11-08T00:12:57.123Z,1.17
2022-11-08T00:15:24.291Z,1.40
2022-11-08T00:17:51.483Z,1.17
2022-11-08T00:20:18.666Z,1.10
2022-11-08T00:22:45.745Z,1.20
2022-11-08T00:25:12.928Z,1.10
2022-11-08T00:27:40.179Z,0.88
2022-11-08T00:30:07.500Z,0.98
2022-11-08T00:32:34.637Z,1.30
2022-11-08T00:35:01.739Z,1.17
2022-11-08T00:37:28.819Z,1.40
2022-11-08T00:39:55.920Z,1.10
2022-11-08T00:42:22.983Z,1.02
2022-11-08T00:44:50.085Z,1.40
2022-11-08T00:47:17.255Z,1.42
2022-11-08T00:49:44.352Z,1.08
2022-11-08T00:52:14.123Z,1.30
2022-11-08T00:54:41.259Z,1.40
2022-11-08T00:57:08.373Z,1.40
2022-11-08T00:59:35.517Z,1.05
2022-11-08T01:02:02.863Z,1.17
2022-11-08T01:04:30.368Z,1.00
2022-11-08T01:06:57.583Z,1.00
2022-11-08T01:09:24.698Z,1.40
2022-11-08T01:11:51.827Z,1.17
2022-11-08T01:14:18.981Z,1.17
2022-11-08T01:16:46.115Z,2.03
2022-11-08T01:19:13.298Z,1.33
2022-11-08T01:21:40.461Z,1.40
2022-11-08T01:24:07.741Z,1.50
2022-11-08T01:26:34.994Z,1.30
2022-11-08T01:29:02.205Z,1.13
2022-11-08T01:31:30.886Z,1.10
2022-11-08T01:33:58.641Z,1.13
2022-11-08T01:36:26.440Z,0.93
2022-11-08T01:38:54.156Z,1.13
2022-11-08T01:41:22.171Z,1.40
2022-11-08T01:43:52.363Z,1.55
2022-11-08T01:46:19.636Z,1.90
2022-11-08T01:48:49.727Z,1.13
2022-11-08T01:51:18.670Z,1.30
2022-11-08T01:53:46.448Z,1.65
2022-11-08T01:56:15.072Z,2.05
2022-11-08T01:58:44.058Z,1.63
2022-11-08T02:03:39.384Z,1.10
2022-11-08T02:06:06.976Z,1.02
2022-11-08T02:08:36.809Z,1.25
2022-11-08T02:11:04.610Z,1.40
2022-11-08T02:13:33.010Z,1.10
2022-11-08T02:16:00.291Z,1.30
2022-11-08T02:18:29.212Z,0.82
2022-11-08T02:21:18.153Z,1.20
2022-11-08T02:23:45.257Z,1.00
2022-11-08T02:26:12.766Z,1.20
2022-11-08T02:28:43.940Z,1.20
2022-11-08T02:31:15.715Z,0.90
2022-11-08T02:33:43.239Z,1.08
2022-11-08T02:36:11.714Z,1.20
2022-11-08T02:38:41.169Z,1.13
2022-11-08T02:41:08.283Z,1.20
2022-11-08T02:43:35.357Z,1.13
2022-11-08T02:46:02.482Z,0.95
2022-11-08T02:48:29.644Z,1.10
2022-11-08T02:50:56.820Z,1.20
2022-11-08T02:53:24.012Z,1.45
2022-11-08T02:55:51.105Z,0.90
2022-11-08T02:58:18.429Z,0.98
2022-11-08T03:00:45.746Z,1.13
2022-11-08T03:03:12.851Z,1.20
2022-11-08T03:05:40.068Z,1.00
2022-11-08T03:08:07.170Z,1.20
2022-11-08T03:10:34.331Z,0.90
2022-11-08T03:13:02.966Z,1.00
2022-11-08T03:15:30.632Z,1.13
2022-11-08T03:17:58.470Z,1.20
2022-11-08T03:20:31.176Z,1.48
2022-11-08T03:23:00.425Z,0.68
2022-11-08T03:25:27.649Z,1.00
2022-11-08T03:27:54.767Z,0.88
2022-11-08T03:30:22.111Z,1.20
2022-11-08T03:32:52.874Z,1.00
2022-11-08T03:35:20.001Z,1.13
2022-11-08T03:37:51.074Z,1.17
2022-11-08T03:40:18.914Z,1.00
2022-11-08T03:42:46.486Z,0.90
2022-11-08T03:45:15.044Z,1.30
2022-11-08T03:47:43.847Z,1.25
2022-11-08T03:50:11.757Z,1.13
2022-11-08T03:52:42.262Z,1.38
2022-11-08T03:55:10.656Z,1.02
2022-11-08T03:57:41.275Z,1.02
2022-11-08T04:00:09.431Z,0.88
2022-11-08T04:02:36.644Z,1.02
2022-11-08T04:05:03.840Z,1.00
2022-11-08T04:07:31.136Z,1.13
2022-11-08T04:09:58.327Z,0.90
2022-11-08T04:12:44.407Z,1.08
2022-11-08T04:15:15.142Z,1.00
2022-11-08T04:18:01.311Z,1.08
2022-11-08T04:20:47.763Z,0.90
2022-11-08T04:23:15.459Z,1.00
2022-11-08T04:25:42.747Z,1.17
2022-11-08T04:28:09.923Z,1.20
2022-11-08T04:30:37.209Z,1.15
2022-11-08T04:33:05.001Z,1.10
2022-11-08T04:35:51.018Z,1.02
2022-11-08T04:38:18.436Z,1.23
2022-11-08T04:40:45.862Z,1.13
2022-11-08T04:43:13.727Z,1.23
2022-11-08T04:45:41.300Z,0.93
2022-11-08T04:48:08.443Z,1.48
2022-11-08T04:50:36.735Z,1.52
2022-11-08T04:53:04.333Z,1.42
2022-11-08T04:55:31.817Z,1.58
2022-11-08T04:57:59.506Z,1.33
2022-11-08T05:00:27.373Z,1.08
2022-11-08T05:02:54.887Z,1.08
2022-11-08T05:05:22.266Z,1.10
2022-11-08T05:07:49.527Z,1.20
2022-11-08T05:10:16.776Z,1.08
2022-11-08T05:12:43.941Z,1.05
2022-11-08T05:15:13.029Z,1.00
2022-11-08T05:17:40.287Z,0.70
2022-11-08T05:20:26.415Z,1.00
2022-11-08T05:23:12.520Z,0.93
2022-11-08T05:25:40.554Z,1.10
2022-11-08T05:28:07.754Z,0.80
2022-11-08T05:30:34.926Z,1.27
2022-11-08T05:33:02.089Z,0.98
2022-11-08T05:35:29.218Z,1.13
2022-11-08T05:37:56.376Z,1.20
2022-11-08T05:40:23.687Z,1.30
2022-11-08T05:42:50.782Z,1.65
2022-11-08T05:45:18.001Z,1.10
2022-11-08T05:47:45.862Z,0.82
2022-11-08T05:50:18.267Z,1.10
2022-11-08T05:52:46.743Z,1.10
2022-11-08T05:55:13.873Z,0.80
2022-11-08T05:57:44.067Z,1.00
2022-11-08T06:00:12.389Z,0.95
2022-11-08T06:02:40.359Z,0.82
2022-11-08T06:05:08.363Z,1.00
2022-11-08T06:07:35.612Z,1.10
2022-11-08T06:10:02.885Z,1.00
2022-11-08T06:12:30.303Z,0.90
2022-11-08T06:14:57.505Z,1.17
2022-11-08T06:17:27.708Z,1.00
2022-11-08T06:19:57.179Z,1.02
2022-11-08T06:22:24.324Z,0.65
2022-11-08T06:24:51.557Z,0.98
2022-11-08T06:27:18.678Z,0.82
2022-11-08T06:29:45.851Z,1.10
2022-11-08T06:32:13.070Z,1.05
2022-11-08T06:34:40.283Z,0.80
2022-11-08T06:37:07.538Z,0.75
2022-11-08T06:39:37.642Z,1.20
2022-11-08T06:42:04.903Z,1.10
2022-11-08T06:44:35.084Z,0.60
2022-11-08T06:47:02.704Z,0.82
2022-11-08T06:49:29.887Z,0.98
2022-11-08T06:51:57.080Z,0.75
2022-11-08T06:54:26.088Z,0.80
2022-11-08T06:56:55.906Z,0.70
2022-11-08T07:01:50.686Z,0.95
2022-11-08T07:04:17.877Z,0.95
2022-11-08T07:06:44.978Z,1.02
2022-11-08T07:09:17.456Z,0.90
2022-11-08T07:11:54.148Z,0.80
2022-11-08T07:14:21.273Z,1.00
2022-11-08T07:16:48.972Z,0.90
2022-11-08T07:19:16.189Z,0.80
2022-11-08T07:21:43.252Z,0.80
2022-11-08T07:24:10.422Z,0.85
2022-11-08T07:26:37.615Z,1.00
2022-11-08T07:29:04.909Z,0.73
2022-11-08T07:31:32.014Z,0.80
2022-11-08T07:33:59.157Z,0.80
2022-11-08T07:36:26.224Z,1.02
2022-11-08T07:38:53.465Z,0.80
2022-11-08T07:41:20.596Z,0.80
2022-11-08T07:43:49.097Z,1.30
2022-11-08T07:46:16.244Z,0.70
2022-11-08T07:48:43.303Z,0.80
2022-11-08T07:51:10.381Z,0.73
2022-11-08T07:53:37.473Z,0.82
2022-11-08T07:56:04.729Z,1.30
2022-11-08T07:58:31.866Z,0.95
2022-11-08T08:01:03.385Z,0.88
2022-11-08T08:03:30.814Z,0.98
2022-11-08T08:06:01.332Z,0.85
2022-11-08T08:08:29.262Z,1.05
2022-11-08T08:11:02.574Z,0.90
2022-11-08T08:13:30.356Z,0.90
2022-11-08T08:16:01.438Z,1.00
2022-11-08T08:18:29.508Z,0.80
2022-11-08T08:20:56.627Z,0.90
2022-11-08T08:23:23.850Z,0.90
2022-11-08T08:25:50.984Z,0.80
2022-11-08T08:28:18.167Z,0.90
2022-11-08T08:30:45.280Z,0.95
2022-11-08T08:33:34.465Z,1.00
2022-11-08T08:36:02.004Z,1.10
2022-11-08T08:38:30.267Z,0.88
2022-11-08T08:40:57.776Z,0.80
2022-11-08T08:43:24.994Z,0.88
2022-11-08T08:45:52.249Z,1.10
2022-11-08T08:48:19.342Z,0.90
2022-11-08T08:50:46.565Z,0.73
2022-11-08T08:53:13.717Z,0.65
2022-11-08T08:55:42.411Z,1.00
2022-11-08T08:58:10.877Z,0.70
2022-11-08T09:03:25.283Z,0.82
2022-11-08T09:05:52.444Z,1.35
2022-11-08T09:08:19.649Z,0.70
2022-11-08T09:10:47.167Z,1.23
2022-11-08T09:13:14.255Z,1.10
2022-11-08T09:15:41.464Z,0.90
2022-11-08T09:18:09.598Z,0.85
2022-11-08T09:20:36.912Z,1.13
2022-11-08T09:23:04.358Z,0.90
2022-11-08T09:25:31.880Z,1.05
2022-11-08T09:27:58.971Z,0.90
2022-11-08T09:30:26.740Z,1.08
2022-11-08T09:33:02.432Z,0.85
2022-11-08T09:35:30.368Z,0.80
2022-11-08T09:37:58.000Z,1.00
2022-11-08T09:40:30.332Z,1.10
2022-11-08T09:43:20.705Z,0.95
2022-11-08T09:45:49.906Z,0.68
2022-11-08T09:48:22.487Z,0.90
2022-11-08T09:50:52.089Z,0.95
2022-11-08T09:53:23.001Z,0.80
2022-11-08T09:56:00.090Z,0.93
2022-11-08T09:58:31.222Z,1.08
2022-11-08T10:00:59.419Z,1.00
2022-11-08T10:03:26.861Z,0.95
2022-11-08T10:05:57.031Z,0.85
2022-11-08T10:08:29.415Z,0.90
2022-11-08T10:11:15.159Z,0.90
2022-11-08T10:13:48.126Z,1.23
2022-11-08T10:16:27.376Z,1.08
2022-11-08T10:18:57.172Z,0.90
2022-11-08T10:21:43.086Z,0.82
2022-11-08T10:24:16.041Z,0.95
2022-11-08T10:26:45.942Z,0.98
2022-11-08T10:29:20.674Z,0.80
2022-11-08T10:31:48.993Z,0.98
2022-11-08T10:34:21.118Z,0.80
2022-11-08T10:36:49.874Z,1.08
2022-11-08T10:39:20.902Z,1.10
2022-11-08T10:42:14.181Z,0.75
2022-11-08T10:44:47.681Z,0.80
2022-11-08T10:47:24.687Z,1.02
2022-11-08T10:49:54.915Z,0.80
2022-11-08T10:52:52.566Z,0.98
2022-11-08T10:55:38.447Z,1.13
2022-11-08T10:58:25.580Z,0.98
2022-11-08T11:01:22.789Z,0.80
2022-11-08T11:03:50.971Z,1.00
2022-11-08T11:06:22.484Z,0.93
2022-11-08T11:08:50.759Z,1.17
2022-11-08T11:11:29.273Z,1.20
2022-11-08T11:14:05.936Z,0.95
2022-11-08T11:16:33.385Z,0.85
2022-11-08T11:19:02.382Z,0.93
2022-11-08T11:24:00.031Z,1.00
2022-11-08T11:26:29.979Z,1.10
2022-11-08T11:29:06.048Z,0.88
2022-11-08T11:31:37.652Z,0.88
2022-11-08T11:34:19.988Z,0.93
2022-11-08T11:37:01.948Z,0.90
2022-11-08T11:39:38.121Z,0.80
2022-11-08T11:42:24.062Z,0.75
2022-11-08T11:45:15.953Z,1.02
2022-11-08T11:47:47.850Z,1.00
2022-11-08T11:50:21.379Z,0.90
2022-11-08T11:52:48.502Z,1.10
2022-11-08T11:55:16.325Z,1.10
2022-11-08T11:57:49.337Z,1.00
2022-11-08T12:00:17.306Z,0.98
2022-11-08T12:02:50.165Z,1.05
2022-11-08T12:05:17.284Z,1.00
2022-11-08T12:07:47.213Z,1.10
2022-11-08T12:10:23.423Z,1.00
2022-11-08T12:13:03.200Z,0.90
2022-11-08T12:15:48.295Z,1.20
2022-11-08T12:18:43.272Z,1.02
2022-11-08T12:21:15.268Z,1.00
2022-11-08T12:23:43.208Z,1.10
2022-11-08T12:26:20.484Z,1.10
2022-11-08T12:29:04.063Z,1.17
2022-11-08T12:31:34.033Z,0.77
2022-11-08T12:34:02.070Z,0.90
2022-11-08T12:36:38.485Z,1.05
2022-11-08T12:39:05.634Z,0.80
2022-11-08T12:41:34.621Z,0.80
2022-11-08T12:46:31.018Z,0.90
2022-11-08T12:51:36.977Z,0.80
2022-11-08T12:54:04.060Z,1.10
2022-11-08T12:56:37.470Z,1.05
2022-11-08T12:59:05.045Z,1.10
2022-11-08T13:01:32.381Z,0.90
2022-11-08T13:04:15.611Z,1.20
2022-11-08T13:06:46.330Z,0.90
2022-11-08T13:09:22.766Z,0.93
2022-11-08T13:11:54.143Z,0.80
2022-11-08T13:14:22.282Z,1.00
2022-11-08T13:17:15.847Z,0.90
2022-11-08T13:22:30.076Z,1.15
2022-11-08T13:25:01.086Z,1.00
2022-11-08T13:27:31.549Z,1.00
2022-11-08T13:30:05.420Z,1.23
2022-11-08T13:32:40.207Z,1.10
2022-11-08T13:35:13.025Z,0.85
2022-11-08T13:37:49.250Z,0.90
2022-11-08T13:40:16.461Z,1.13
2022-11-08T13:42:49.516Z,1.02
2022-11-08T13:45:19.498Z,1.00
2022-11-08T13:47:48.763Z,1.10
2022-11-08T13:50:45.405Z,1.30
2022-11-08T13:53:24.286Z,0.90
2022-11-08T13:55:56.178Z,0.95
2022-11-08T13:58:43.238Z,1.05
2022-11-08T14:01:19.451Z,1.02
2022-11-08T14:03:46.624Z,1.10
2022-11-08T14:06:32.301Z,0.90
2022-11-08T14:09:04.065Z,1.08
2022-11-08T14:11:37.204Z,0.93
2022-11-08T14:14:23.160Z,1.00
2022-11-08T14:17:04.040Z,0.80
2022-11-08T14:19:32.334Z,0.93
2022-11-08T14:22:01.711Z,1.13
2022-11-08T14:24:29.791Z,0.90
2022-11-08T14:26:57.348Z,1.20
2022-11-08T14:29:25.123Z,1.20
2022-11-08T14:32:02.150Z,0.90
2022-11-08T14:34:38.680Z,1.00
2022-11-08T14:37:13.068Z,1.10
2022-11-08T14:39:40.146Z,0.95
2022-11-08T14:42:14.196Z,1.08
2022-11-08T14:44:44.114Z,1.00
2022-11-08T14:47:23.834Z,0.90
2022-11-08T14:49:51.147Z,0.85
2022-11-08T14:52:19.930Z,0.80
2022-11-08T14:54:48.144Z,1.00
2022-11-08T14:57:31.404Z,1.00
2022-11-08T14:59:58.885Z,0.90
2022-11-08T15:02:26.430Z,1.42
2022-11-08T15:04:54.372Z,0.98
2022-11-08T15:07:22.322Z,1.13
2022-11-08T15:09:50.197Z,1.20
2022-11-08T15:12:19.147Z,1.15
2022-11-08T15:17:29.923Z,1.10
2022-11-08T15:20:03.831Z,1.20
2022-11-08T15:22:32.084Z,1.00
2022-11-08T15:25:03.625Z,1.15
2022-11-08T15:27:30.813Z,1.38
2022-11-08T15:30:10.343Z,1.10
2022-11-08T15:32:38.676Z,1.10
2022-11-08T15:35:07.070Z,0.90
2022-11-08T15:37:38.505Z,0.95
2022-11-08T15:40:07.826Z,1.00
2022-11-08T15:42:36.777Z,0.90
2022-11-08T15:45:05.573Z,1.35
2022-11-08T15:47:40.253Z,0.93
2022-11-08T15:50:19.529Z,1.05
2022-11-08T15:52:48.929Z,0.98
2022-11-08T15:55:23.703Z,0.90
2022-11-08T15:57:51.551Z,1.27
2022-11-08T16:00:25.515Z,1.20
2022-11-08T16:02:53.536Z,1.00
2022-11-08T16:05:28.133Z,1.13
2022-11-08T16:07:55.779Z,1.55
2022-11-08T16:10:25.753Z,1.02
2022-11-08T16:12:53.244Z,1.63
2022-11-08T16:15:30.700Z,1.08
2022-11-08T16:17:57.892Z,0.90
2022-11-08T16:20:25.547Z,1.10
2022-11-08T16:22:52.682Z,1.20
2022-11-08T16:25:20.065Z,1.10
2022-11-08T16:27:52.826Z,1.20
2022-11-08T16:30:20.134Z,0.85
2022-11-08T16:32:47.414Z,1.27
2022-11-08T16:35:15.654Z,1.10
2022-11-08T16:37:43.386Z,1.02
2022-11-08T16:40:15.769Z,1.08
2022-11-08T16:42:43.104Z,1.40
2022-11-08T16:45:10.513Z,1.00
2022-11-08T16:47:37.788Z,0.98
2022-11-08T16:50:05.075Z,1.10
2022-11-08T16:52:32.205Z,1.10
2022-11-08T16:54:59.279Z,1.10
2022-11-08T16:57:34.713Z,1.08
2022-11-08T17:00:02.492Z,1.10
2022-11-08T17:02:31.492Z,1.63
2022-11-08T17:07:26.850Z,1.20
2022-11-08T17:09:54.248Z,1.13
2022-11-08T17:12:21.482Z,1.00
2022-11-08T17:14:48.577Z,1.15
2022-11-08T17:17:16.223Z,1.00
2022-11-08T17:19:43.347Z,1.35
2022-11-08T17:22:10.449Z,1.00
2022-11-08T17:24:37.601Z,1.00
2022-11-08T17:27:04.744Z,1.27
2022-11-08T17:29:32.213Z,1.30
2022-11-08T17:31:59.339Z,1.52
2022-11-08T17:34:26.511Z,1.70
2022-11-08T17:36:53.708Z,1.63
2022-11-08T17:39:20.879Z,1.60
2022-11-08T17:41:47.985Z,1.85
2022-11-08T17:44:15.130Z,2.13
2022-11-08T17:46:42.228Z,2.22
2022-11-08T17:49:09.516Z,2.40
2022-11-08T17:51:36.690Z,2.40
2022-11-08T17:54:03.882Z,2.15
2022-11-08T17:56:31.334Z,2.40
2022-11-08T17:58:58.528Z,2.20
2022-11-08T18:01:25.677Z,2.70
2022-11-08T18:03:52.809Z,2.50
2022-11-08T18:06:19.933Z,2.22
2022-11-08T18:08:47.129Z,2.10
2022-11-08T18:11:14.500Z,2.38
2022-11-08T18:13:42.141Z,2.13
2022-11-08T18:16:16.292Z,2.00
2022-11-08T18:18:45.902Z,2.20
2022-11-08T18:21:13.298Z,1.92
2022-11-08T18:23:41.197Z,2.13
2022-11-08T18:26:08.420Z,2.00
2022-11-08T18:28:36.752Z,1.73
2022-11-08T18:31:07.977Z,1.90
2022-11-08T18:33:36.154Z,2.08
2022-11-08T18:36:10.540Z,2.00
2022-11-08T18:38:42.130Z,1.98
2022-11-08T18:41:09.682Z,1.85
2022-11-08T18:43:38.388Z,2.10
2022-11-08T18:46:06.459Z,1.92
2022-11-08T18:48:35.623Z,2.00
2022-11-08T18:51:06.810Z,2.13
2022-11-08T18:53:34.011Z,1.88
2022-11-08T18:56:01.529Z,1.88
2022-11-08T18:58:28.822Z,1.73
2022-11-08T19:00:56.798Z,1.95
2022-11-08T19:03:24.523Z,1.65
2022-11-08T19:05:51.781Z,2.00
2022-11-08T19:08:20.159Z,1.70
2022-11-08T19:10:54.507Z,1.90
2022-11-08T19:13:22.354Z,1.98
2022-11-08T19:15:59.634Z,1.70
2022-11-08T19:18:27.501Z,2.42
2022-11-08T19:20:57.193Z,1.90
2022-11-08T19:23:24.480Z,1.67
2022-11-08T19:25:55.484Z,1.70
2022-11-08T19:28:22.933Z,1.98
2022-11-08T19:30:51.227Z,1.60
2022-11-08T19:33:18.628Z,1.55
2022-11-08T19:35:45.945Z,1.50
2022-11-08T19:38:13.041Z,1.58
2022-11-08T19:40:41.266Z,1.50
2022-11-08T19:43:08.836Z,1.67
2022-11-08T19:45:35.908Z,1.60
2022-11-08T19:48:02.980Z,1.55
2022-11-08T19:50:30.152Z,1.60
2022-11-08T19:52:57.397Z,1.70
2022-11-08T19:55:24.606Z,2.10
2022-11-08T19:57:51.708Z,1.30
2022-11-08T20:00:19.371Z,1.65
2022-11-08T20:02:46.500Z,1.95
2022-11-08T20:05:13.568Z,1.65
2022-11-08T20:07:40.739Z,1.55
2022-11-08T20:10:09.288Z,1.80
2022-11-08T20:12:36.418Z,2.13
2022-11-08T20:15:03.570Z,1.80
2022-11-08T20:17:30.687Z,2.05
2022-11-08T20:19:57.800Z,1.80
2022-11-08T20:22:24.992Z,1.58
2022-11-08T20:24:52.173Z,1.80
2022-11-08T20:27:19.312Z,1.27
2022-11-08T20:29:46.379Z,1.60
2022-11-08T20:32:13.477Z,1.60
2022-11-08T20:34:41.341Z,1.65
2022-11-08T20:37:10.997Z,1.67
2022-11-08T20:39:38.095Z,1.48
2022-11-08T20:42:05.225Z,1.50
2022-11-08T20:44:32.311Z,1.60
2022-11-08T20:47:05.524Z,1.35
2022-11-08T20:49:33.643Z,1.52
2022-11-08T20:52:00.726Z,1.45
2022-11-08T20:54:27.801Z,1.38
2022-11-08T20:56:54.930Z,1.52
2022-11-08T20:59:22.002Z,1.50
2022-11-08T21:01:49.248Z,1.35
2022-11-08T21:04:16.393Z,1.65
2022-11-08T21:06:43.982Z,1.45
2022-11-08T21:09:34.476Z,1.25
2022-11-08T21:11:58.729Z,1.67
2022-11-08T21:14:26.082Z,1.55
2022-11-08T21:17:20.385Z,1.45
2022-11-08T21:19:40.448Z,1.65
2022-11-08T21:22:16.898Z,1.38
2022-11-08T21:24:44.726Z,1.17
2022-11-08T21:27:12.291Z,1.42
2022-11-08T21:29:39.864Z,1.38
2022-11-08T21:32:07.314Z,1.30
2022-11-08T21:34:34.463Z,1.58
2022-11-08T21:37:01.582Z,1.35
2022-11-08T21:39:28.677Z,1.85
2022-11-08T21:41:55.811Z,1.42
2022-11-08T21:44:22.972Z,1.30
2022-11-08T21:46:50.185Z,1.30
2022-11-08T21:49:17.293Z,2.33
2022-11-08T21:51:44.371Z,1.52
2022-11-08T21:54:11.454Z,1.75
2022-11-08T21:56:39.051Z,1.38
2022-11-08T21:59:06.223Z,1.63
2022-11-08T22:01:33.641Z,1.27
2022-11-08T22:04:00.868Z,1.42
2022-11-08T22:06:28.890Z,1.60
2022-11-08T22:08:56.314Z,1.35
2022-11-08T22:11:23.479Z,1.70
2022-11-08T22:13:50.643Z,1.38
2022-11-08T22:16:17.764Z,1.30
2022-11-08T22:21:38.166Z,1.58
2022-11-08T22:24:12.389Z,1.58
2022-11-08T22:26:39.994Z,1.30
2022-11-08T22:29:07.466Z,1.48
2022-11-08T22:31:34.719Z,1.27
2022-11-08T22:34:01.941Z,1.33
2022-11-08T22:36:29.070Z,1.48
2022-11-08T22:38:56.362Z,1.25
2022-11-08T22:41:23.683Z,1.40
2022-11-08T22:43:50.763Z,1.63
2022-11-08T22:46:18.240Z,1.40
2022-11-08T22:48:45.751Z,1.10
2022-11-08T22:51:12.995Z,1.40
2022-11-08T22:53:40.401Z,1.13
2022-11-08T22:56:11.241Z,1.10
2022-11-08T22:58:39.174Z,1.30
2022-11-08T23:01:06.786Z,1.30
2022-11-08T23:03:34.373Z,1.48
2022-11-08T23:06:01.474Z,1.40
2022-11-08T23:08:28.560Z,1.70
2022-11-08T23:11:14.481Z,1.10
2022-11-08T23:14:00.394Z,1.23
2022-11-08T23:16:37.414Z,1.10
2022-11-08T23:19:25.068Z,1.30
2022-11-08T23:22:10.941Z,1.50
2022-11-08T23:24:38.087Z,1.25
2022-11-08T23:27:24.267Z,1.40
2022-11-08T23:30:10.562Z,1.20
2022-11-08T23:32:42.419Z,1.58
2022-11-08T23:35:09.943Z,1.23
2022-11-08T23:37:37.002Z,1.70
2022-11-08T23:40:23.565Z,1.20
2022-11-08T23:43:09.548Z,1.30
2022-11-08T23:45:36.596Z,1.60
2022-11-08T23:48:03.725Z,1.58
2022-11-08T23:50:30.858Z,1.30
2022-11-08T23:52:59.896Z,1.20
2022-11-08T23:57:53.976Z,1.15
